LTAG/ADF METAR and TAF weather

Enter ICAO airport designator
Station Type Date Time Source
LTAG METAR 2021/03/05 13:20 UTC NOAA

LTAG 051320Z 20008KT CAVOK 21/08 Q1020 NOSIG


Station Type Date Time Source
LTAG Decoded METAR 2021/03/05 13:20 UTC NOAA

Adana / Incirlik, Turkey (LTAG) 37-00N 035-25E 66M
Mar 05, 2021 - 08:20 AM EST / 2021.03.05 1320 UTC
Wind: from the SSW (200 degrees) at 9 MPH (8 KT):0
Visibility: greater than 7 mile(s):0
Temperature: 69 F (21 C)
Dew Point: 46 F (8 C)
Relative Humidity: 43%
Pressure (altimeter): 30.12 in. Hg (1020 hPa)
ob: LTAG 051320Z 20008KT CAVOK 21/08 Q1020 NOSIG
cycle: 13

Station Type Date Time Source
LTAG TAF 2021/03/05 12:03 UTC NOAA

TAF TAF LTAG 051040Z 0512/0612 VRB02KT CAVOK
BECMG 0520/0523 SCT035
BECMG 0608/0610 16012KT BKN030 BKN090

Example: see airport list